Time;durP1;ratioP1;P1;durP2;ratioP2;P2;SDS_P1;SDS_P2;PMS_P1;PMS_P2;Temp;Humidity;BMP_temperature;BMP_pressure;BME280_temperature;BME280_humidity;BME280_pressure;Samples;Min_cycle;Max_cycle;Signal;HPM_P1;HPM_P2
2022/11/03 00:01:54;;;;;;;2.38;0.25;;;;;;;10.29;100.00;99995.53;5050600;28;20080;-62
2022/11/03 00:04:21;;;;;;;5.78;0.70;;;;;;;10.31;100.00;100005.94;5049448;28;20397;-64
2022/11/03 00:06:49;;;;;;;3.90;0.17;;;;;;;10.36;100.00;100004.31;5049369;28;20121;-64
2022/11/03 00:09:15;;;;;;;1.33;0.20;;;;;;;10.41;100.00;100009.03;5054941;28;20037;-65
2022/11/03 00:11:43;;;;;;;1.35;0.10;;;;;;;10.42;100.00;100005.34;5051649;28;20036;-64
2022/11/03 00:14:09;;;;;;;3.63;1.75;;;;;;;10.42;100.00;99984.13;5049940;28;20500;-64
2022/11/03 00:16:35;;;;;;;3.85;0.20;;;;;;;10.41;100.00;99977.22;5055430;28;20482;-64
2022/11/03 00:19:01;;;;;;;2.42;0.08;;;;;;;10.36;100.00;99961.91;5057676;28;20025;-64
2022/11/03 00:21:27;;;;;;;8.18;0.95;;;;;;;10.36;100.00;99974.34;5048781;28;20036;-65
2022/11/03 00:23:53;;;;;;;2.53;0.55;;;;;;;10.33;100.00;99953.56;5055707;28;20498;-65
2022/11/03 00:26:23;;;;;;;2.90;0.90;;;;;;;10.30;100.00;99965.38;5049866;28;20032;-65
2022/11/03 00:28:52;;;;;;;1.23;0.47;;;;;;;10.30;100.00;99964.53;5058562;28;20480;-64
2022/11/03 00:31:24;;;;;;;2.90;0.25;;;;;;;10.30;100.00;99973.34;5050901;28;20121;-65
2022/11/03 00:33:50;;;;;;;2.20;1.85;;;;;;;10.28;100.00;99966.59;5049544;28;20028;-66
2022/11/03 00:36:18;;;;;;;1.98;0.70;;;;;;;10.26;100.00;99970.22;5058558;28;20306;-65
2022/11/03 00:38:44;;;;;;;2.97;0.20;;;;;;;10.25;100.00;99952.69;5054322;28;20439;-65
2022/11/03 00:41:11;;;;;;;10.15;0.43;;;;;;;10.25;100.00;99952.69;5050749;28;20117;-65
2022/11/03 00:43:36;;;;;;;3.08;0.50;;;;;;;10.25;100.00;99959.84;5057108;28;20493;-65
2022/11/03 00:46:04;;;;;;;5.80;1.52;;;;;;;10.25;100.00;99967.78;5046805;28;20040;-63
2022/11/03 00:48:33;;;;;;;1.58;0.30;;;;;;;10.28;100.00;99966.59;5051977;28;20533;-64
2022/11/03 00:51:09;;;;;;;0.50;0.05;;;;;;;10.31;100.00;99955.59;5060217;28;20025;-64
2022/11/03 00:53:42;;;;;;;8.43;0.40;;;;;;;10.33;100.00;99954.38;5050134;28;20040;-65
2022/11/03 00:56:13;;;;;;;7.40;0.70;;;;;;;10.35;100.00;99941.75;5053851;28;20035;-64
2022/11/03 00:58:38;;;;;;;6.38;0.63;;;;;;;10.35;100.00;99928.50;5055816;28;20113;-64
2022/11/03 01:01:07;;;;;;;3.70;0.98;;;;;;;10.39;100.00;99920.94;5050619;28;20033;-64
2022/11/03 01:03:35;;;;;;;7.25;0.68;;;;;;;10.41;100.00;99921.56;5052596;28;20032;-64
2022/11/03 01:08:45;;;;;;;5.45;0.63;;;;;;;10.35;100.00;99912.59;5052774;28;20039;-65
2022/11/03 01:13:56;;;;;;;7.53;0.65;;;;;;;10.38;100.00;99919.31;5048588;28;20500;-65
2022/11/03 01:16:22;;;;;;;4.03;0.25;;;;;;;10.39;100.00;99931.53;5056427;28;20061;-65
2022/11/03 01:18:48;;;;;;;5.47;0.98;;;;;;;10.39;100.00;99931.53;5057155;28;20043;-65
2022/11/03 01:21:13;;;;;;;6.88;1.00;;;;;;;10.39;100.00;99940.31;5052570;28;20465;-64
2022/11/03 01:23:39;;;;;;;1.33;0.68;;;;;;;10.43;100.00;99932.78;5056170;28;20228;-65
2022/11/03 01:26:06;;;;;;;3.65;1.05;;;;;;;10.45;100.00;99925.41;5050753;28;20027;-64
2022/11/03 01:28:38;;;;;;;7.03;0.38;;;;;;;10.44;100.00;99926.44;5058207;28;20044;-65
2022/11/03 01:31:18;;;;;;;2.05;0.68;;;;;;;10.44;100.00;99940.50;5057718;28;20037;-65
2022/11/03 01:33:45;;;;;;;12.15;0.63;;;;;;;10.41;100.00;99942.75;5053571;28;20573;-65
2022/11/03 01:36:11;;;;;;;8.45;0.38;;;;;;;10.41;100.00;99942.75;5053892;28;20033;-65
2022/11/03 01:38:37;;;;;;;3.58;0.65;;;;;;;10.43;100.00;99930.13;5061410;28;20029;-65
2022/11/03 01:41:04;;;;;;;0.82;0.57;;;;;;;10.44;100.00;99924.59;5067316;28;20424;-66
2022/11/03 01:43:33;;;;;;;12.45;0.82;;;;;;;10.45;100.00;99926.25;5065958;28;20043;-66
2022/11/03 01:46:08;;;;;;;2.03;0.70;;;;;;;10.44;100.00;99921.97;5069629;28;20032;-66
2022/11/03 01:48:35;;;;;;;3.58;0.60;;;;;;;10.43;100.00;99908.94;5060398;28;20049;-65
2022/11/03 01:51:04;;;;;;;6.50;1.90;;;;;;;10.43;100.00;99898.31;5039800;28;21198;-65
2022/11/03 01:53:29;;;;;;;8.82;0.63;;;;;;;10.44;100.00;99873.44;5063529;28;20470;-66
2022/11/03 01:55:56;;;;;;;6.07;2.28;;;;;;;10.41;100.00;99866.72;5067091;28;20043;-65
2022/11/03 01:58:29;;;;;;;5.90;1.50;;;;;;;10.42;100.00;99876.28;5065686;28;20028;-65
2022/11/03 02:00:59;;;;;;;3.85;0.35;;;;;;;10.43;100.00;99874.47;5055276;28;20036;-66
2022/11/03 02:03:28;;;;;;;2.47;0.93;;;;;;;10.42;100.00;99883.44;5069383;28;20392;-68
2022/11/03 02:05:55;;;;;;;10.82;1.80;;;;;;;10.42;100.00;99875.47;5043851;28;20182;-67
2022/11/03 02:08:33;;;;;;;5.07;0.50;;;;;;;10.41;100.00;99871.22;5063971;28;20045;-67
2022/11/03 02:10:58;;;;;;;8.52;1.30;;;;;;;10.37;100.00;99854.88;5063035;28;20046;-67
2022/11/03 02:13:25;;;;;;;3.70;0.65;;;;;;;10.39;100.00;99857.34;5074776;28;20489;-67
2022/11/03 02:15:59;;;;;;;5.63;0.17;;;;;;;10.41;100.00;99864.06;5066753;28;20039;-67
2022/11/03 02:18:28;;;;;;;1.20;0.40;;;;;;;10.45;100.00;99851.22;5059302;28;20083;-67
2022/11/03 02:21:05;;;;;;;3.58;0.85;;;;;;;10.45;100.00;99854.69;5051492;28;20115;-67
2022/11/03 02:23:46;;;;;;;4.05;2.22;;;;;;;10.46;100.00;99848.38;5056206;28;20419;-67
2022/11/03 02:26:13;;;;;;;4.40;1.08;;;;;;;10.45;100.00;99849.41;5057654;28;20029;-67
2022/11/03 02:28:39;;;;;;;6.82;1.85;;;;;;;10.44;100.00;99850.41;5054903;28;20071;-67
2022/11/03 02:31:07;;;;;;;4.80;0.55;;;;;;;10.46;100.00;99842.25;5061661;28;20490;-67
2022/11/03 02:33:44;;;;;;;5.78;0.52;;;;;;;10.49;100.00;99833.88;5059267;28;20036;-67
2022/11/03 02:36:42;;;;;;;5.80;1.33;;;;;;;10.50;100.00;99821.44;5068890;28;20626;-66
2022/11/03 02:39:16;;;;;;;4.68;0.57;;;;;;;10.49;100.00;99815.34;5057291;28;20076;-66
2022/11/03 02:41:44;;;;;;;2.60;0.25;;;;;;;10.48;100.00;99809.22;5064771;28;20033;-66
2022/11/03 02:44:17;;;;;;;5.07;1.60;;;;;;;10.48;100.00;99800.47;5062323;28;20013;-66
2022/11/03 02:46:44;;;;;;;3.80;0.82;;;;;;;10.47;100.00;99799.63;5059275;28;20062;-66
2022/11/03 02:49:09;;;;;;;6.80;1.83;;;;;;;10.45;100.00;99801.69;5057341;28;20029;-66
2022/11/03 02:51:35;;;;;;;1.25;0.30;;;;;;;10.45;100.00;99782.31;5056049;28;20120;-66
2022/11/03 02:54:06;;;;;;;2.63;0.25;;;;;;;10.46;100.00;99790.06;5051925;28;20032;-66
2022/11/03 02:56:37;;;;;;;3.42;0.43;;;;;;;10.47;100.00;99786.38;5048228;28;20506;-66
2022/11/03 02:59:12;;;;;;;4.32;0.47;;;;;;;10.49;100.00;99778.22;5061677;28;20020;-65
2022/11/03 03:01:47;;;;;;;7.05;1.38;;;;;;;10.46;100.00;99779.44;5060440;28;20068;-66
2022/11/03 03:04:19;;;;;;;7.75;1.13;;;;;;;10.45;100.00;99772.53;5064630;28;20021;-65
2022/11/03 03:06:58;;;;;;;5.95;0.25;;;;;;;10.44;100.00;99765.59;5051615;28;20486;-65
2022/11/03 03:09:30;;;;;;;6.03;0.57;;;;;;;10.40;100.00;99743.19;5037302;28;20037;-66
2022/11/03 03:11:58;;;;;;;2.83;0.45;;;;;;;10.38;100.00;99731.97;5066906;28;20041;-66
2022/11/03 03:14:28;;;;;;;2.08;0.30;;;;;;;10.35;100.00;99724.44;5064627;28;20027;-66
2022/11/03 03:17:03;;;;;;;8.18;0.93;;;;;;;10.33;100.00;99720.38;5041161;28;21421;-66
2022/11/03 03:19:28;;;;;;;1.95;0.40;;;;;;;10.29;100.00;99729.75;5059643;28;20033;-66
2022/11/03 03:22:00;;;;;;;2.55;0.25;;;;;;;10.30;100.00;99718.13;5054278;28;20032;-66
2022/11/03 03:24:32;;;;;;;;;;;;;;;10.29;100.00;99727.09;5062477;28;20032;-65
2022/11/03 03:27:00;;;;;;;1.40;0.08;;;;;;;10.23;100.00;99716.28;5057352;28;19923;-65
2022/11/03 03:29:32;;;;;;;4.90;0.35;;;;;;;10.22;100.00;99716.47;5050112;28;20412;-65
2022/11/03 03:32:02;;;;;;;0.38;0.00;;;;;;;10.23;100.00;99684.50;5059269;28;20486;-66
2022/11/03 03:34:30;;;;;;;2.15;0.32;;;;;;;10.20;100.00;99694.69;5062802;28;20437;-66
2022/11/03 03:36:58;;;;;;;2.60;0.65;;;;;;;10.17;100.00;99690.63;5042735;28;20918;-67
2022/11/03 03:39:29;;;;;;;2.03;1.00;;;;;;;10.16;100.00;99672.28;5063028;28;20024;-67
2022/11/03 03:41:56;;;;;;;1.13;0.20;;;;;;;10.13;100.00;99667.41;5058829;28;20774;-67
2022/11/03 03:44:21;;;;;;;2.30;0.08;;;;;;;10.09;100.00;99677.56;5058252;28;20021;-67
2022/11/03 03:46:54;;;;;;;0.70;0.00;;;;;;;10.10;100.00;99665.97;5056347;28;20038;-67
2022/11/03 03:49:20;;;;;;;4.43;0.40;;;;;;;10.08;100.00;99670.66;5058461;28;20440;-67
2022/11/03 03:51:47;;;;;;;2.83;0.20;;;;;;;10.09;100.00;99666.97;5060641;28;20028;-67
2022/11/03 03:54:13;;;;;;;0.00;0.00;;;;;;;10.07;100.00;99662.91;5052200;28;20044;-66
2022/11/03 03:56:42;;;;;;;4.32;0.30;;;;;;;10.05;100.00;99644.59;5057631;28;20028;-65
2022/11/03 03:59:07;;;;;;;2.17;0.63;;;;;;;10.04;100.00;99653.56;5061739;28;20057;-66
2022/11/03 04:01:33;;;;;;;4.57;0.73;;;;;;;10.02;100.00;99656.44;5052575;28;20076;-66
2022/11/03 04:03:58;;;;;;;3.60;0.10;;;;;;;10.02;100.00;99655.63;5059147;28;20472;-66
2022/11/03 04:06:24;;;;;;;0.68;0.00;;;;;;;10.01;100.00;99653.97;5059453;28;20036;-66
2022/11/03 04:08:49;;;;;;;1.38;0.82;;;;;;;10.00;100.00;99662.94;5057511;28;20123;-66
2022/11/03 04:22:17;;;;;;;2.28;0.38;;;;;;;9.90;100.00;99606.94;5061564;28;20090;-66
2022/11/03 04:24:50;;;;;;;2.10;0.10;;;;;;;9.90;100.00;99602.47;5061403;28;20039;-66
2022/11/03 04:27:33;;;;;;;1.88;0.08;;;;;;;9.90;100.00;99604.31;5057463;28;20401;-66
2022/11/03 04:30:17;;;;;;;0.63;0.00;;;;;;;9.91;100.00;99598.78;5061996;28;20389;-66
2022/11/03 04:32:44;;;;;;;3.40;0.28;;;;;;;9.88;100.00;99593.91;5059793;28;20050;-64
2022/11/03 04:35:15;;;;;;;0.98;0.10;;;;;;;9.88;100.00;99596.56;5040953;28;20528;-66
2022/11/03 04:37:41;;;;;;;5.10;0.30;;;;;;;9.87;100.00;99600.25;5060421;28;20021;-66
2022/11/03 04:40:14;;;;;;;3.20;0.10;;;;;;;9.89;100.00;99608.00;5059141;28;20307;-64
2022/11/03 04:42:39;;;;;;;1.65;0.55;;;;;;;9.85;100.00;99610.22;5063804;28;20421;-63
2022/11/03 04:45:15;;;;;;;0.85;0.00;;;;;;;9.87;100.00;99616.13;5059960;28;20056;-63
2022/11/03 04:47:41;;;;;;;0.80;0.10;;;;;;;9.83;100.00;99621.03;5061484;28;20033;-63
2022/11/03 04:50:20;;;;;;;4.43;1.23;;;;;;;9.86;100.00;99624.25;5062579;28;20082;-64
2022/11/03 04:52:56;;;;;;;1.90;0.00;;;;;;;9.87;100.00;99631.19;5063568;28;20470;-63
2022/11/03 04:55:22;;;;;;;1.27;0.20;;;;;;;9.84;100.00;99616.53;5058171;28;20451;-63
2022/11/03 04:57:50;;;;;;;0.57;0.20;;;;;;;9.81;100.00;99607.19;5059086;28;20036;-65
2022/11/03 05:00:17;;;;;;;3.72;0.45;;;;;;;9.79;100.00;99592.53;5057907;28;20498;-63
2022/11/03 05:02:44;;;;;;;1.67;0.13;;;;;;;9.77;100.00;99595.38;5063628;28;20040;-63
2022/11/03 05:05:18;;;;;;;1.60;0.08;;;;;;;9.76;100.00;99596.41;5063174;28;20033;-64
2022/11/03 05:07:47;;;;;;;0.32;0.03;;;;;;;9.76;100.00;99595.59;5062664;28;20044;-64
2022/11/03 05:10:15;;;;;;;0.88;0.45;;;;;;;9.74;100.00;99595.78;5061171;28;20106;-63
2022/11/03 05:12:41;;;;;;;1.05;0.20;;;;;;;9.73;100.00;99588.03;5069672;28;20071;-64
2022/11/03 05:15:25;;;;;;;3.58;0.10;;;;;;;9.73;100.00;99588.88;5073042;28;20048;-63
2022/11/03 05:17:51;;;;;;;2.05;0.47;;;;;;;9.69;100.00;99577.06;5058752;28;20025;-63
2022/11/03 05:20:32;;;;;;;4.35;0.68;;;;;;;9.70;100.00;99585.81;5068907;28;20071;-64
2022/11/03 05:22:58;;;;;;;0.40;0.20;;;;;;;9.65;100.00;99583.78;5065284;28;20359;-64
2022/11/03 05:25:29;;;;;;;1.80;0.10;;;;;;;9.63;100.00;99569.13;5062862;28;20121;-64
2022/11/03 05:27:54;;;;;;;2.25;0.20;;;;;;;9.59;100.00;99566.91;5061323;28;20041;-64
2022/11/03 05:30:20;;;;;;;2.55;0.20;;;;;;;9.60;100.00;99570.34;5071668;28;20043;-64
2022/11/03 05:32:45;;;;;;;1.52;0.60;;;;;;;9.59;100.00;99572.19;5061404;28;20021;-63
2022/11/03 05:35:19;;;;;;;4.95;0.10;;;;;;;9.61;100.00;99579.94;5063958;28;20090;-64
2022/11/03 05:37:45;;;;;;;1.70;0.17;;;;;;;9.59;100.00;99577.47;5069701;28;20094;-64
2022/11/03 05:40:20;;;;;;;0.17;0.00;;;;;;;9.60;100.00;99579.13;5059337;28;20021;-64
2022/11/03 05:42:49;;;;;;;2.35;0.03;;;;;;;9.59;100.00;99574.03;5064954;28;20016;-63
2022/11/03 05:45:31;;;;;;;0.40;0.10;;;;;;;9.62;100.00;99568.31;5064458;28;20578;-63
2022/11/03 05:47:58;;;;;;;3.65;0.17;;;;;;;9.62;100.00;99576.25;5058069;28;20710;-64
2022/11/03 05:50:25;;;;;;;2.03;0.10;;;;;;;9.62;100.00;99565.66;5067169;28;20025;-64
2022/11/03 05:52:55;;;;;;;0.82;0.05;;;;;;;9.63;100.00;99569.97;5070413;28;20073;-66
2022/11/03 05:55:30;;;;;;;2.22;0.20;;;;;;;9.61;100.00;99558.75;5060172;28;20544;-66
2022/11/03 05:57:58;;;;;;;2.15;0.80;;;;;;;9.59;100.00;99552.84;5055455;28;20408;-67
2022/11/03 06:00:31;;;;;;;1.60;0.30;;;;;;;9.57;100.00;99539.00;5044542;28;20028;-66
2022/11/03 06:02:58;;;;;;;0.98;0.00;;;;;;;9.54;100.00;99526.19;5044704;28;20036;-66
2022/11/03 06:05:25;;;;;;;0.43;0.43;;;;;;;9.51;100.00;99521.31;5063769;28;20025;-66
2022/11/03 06:07:53;;;;;;;1.00;0.20;;;;;;;9.47;100.00;99517.47;5056283;28;20542;-66
2022/11/03 06:10:28;;;;;;;2.28;0.65;;;;;;;9.46;100.00;99518.50;5058955;28;20040;-66
2022/11/03 06:12:58;;;;;;;0.63;0.28;;;;;;;9.45;100.00;99515.03;5058491;28;20029;-65
2022/11/03 06:15:33;;;;;;;2.35;0.20;;;;;;;9.40;100.00;99525.44;5067134;28;20036;-65
2022/11/03 06:18:07;;;;;;;1.10;0.40;;;;;;;9.37;100.00;99516.06;5059020;28;20414;-65
2022/11/03 06:20:33;;;;;;;3.40;0.10;;;;;;;9.38;100.00;99516.88;5044838;28;20080;-65
2022/11/03 06:22:59;;;;;;;0.30;0.00;;;;;;;9.37;100.00;99512.59;5059782;28;20028;-62
2022/11/03 06:25:30;;;;;;;3.22;0.45;;;;;;;9.37;100.00;99520.53;5058286;28;20033;-63
2022/11/03 06:28:01;;;;;;;0.45;0.20;;;;;;;9.38;100.00;99530.09;5057635;28;20041;-63
2022/11/03 06:30:32;;;;;;;3.60;0.30;;;;;;;9.35;100.00;99518.09;5060832;28;20056;-63
2022/11/03 06:32:59;;;;;;;;;;;;;;;9.35;100.00;99519.94;5059753;28;20280;-65
2022/11/03 06:35:25;;;;;;;2.47;0.32;;;;;;;9.32;100.00;99518.53;5060718;28;19924;-65
2022/11/03 06:37:50;;;;;;;2.05;0.10;;;;;;;9.31;100.00;99510.78;5055218;28;20029;-65
2022/11/03 06:40:16;;;;;;;4.07;0.00;;;;;;;9.29;100.00;99513.66;5058076;28;20036;-64
2022/11/03 06:42:41;;;;;;;1.95;0.00;;;;;;;9.29;100.00;99518.94;5062473;28;20470;-64
2022/11/03 06:45:13;;;;;;;0.20;0.20;;;;;;;9.30;100.00;99525.03;5060105;28;20032;-63
2022/11/03 06:47:39;;;;;;;2.67;0.35;;;;;;;9.29;100.00;99532.16;5058107;28;20148;-63
2022/11/03 06:50:21;;;;;;;2.38;0.35;;;;;;;9.27;100.00;99526.25;5050585;28;20124;-63
2022/11/03 06:52:48;;;;;;;3.17;1.35;;;;;;;9.23;100.00;99514.44;5062079;28;20036;-63
2022/11/03 06:55:27;;;;;;;4.38;0.35;;;;;;;9.21;100.00;99503.25;5052724;28;20048;-63
2022/11/03 06:58:16;;;;;;;3.63;1.55;;;;;;;9.19;100.00;99497.38;5053348;28;20025;-64
2022/11/03 07:00:42;;;;;;;1.65;0.35;;;;;;;9.15;100.00;99496.16;5051058;28;20516;-64
2022/11/03 07:03:37;;;;;;;6.15;0.95;;;;;;;9.13;100.00;99490.25;5057265;28;20032;-64
2022/11/03 07:06:09;;;;;;;5.50;0.45;;;;;;;9.10;100.00;99488.84;5058775;28;20385;-65
2022/11/03 07:08:38;;;;;;;1.17;0.10;;;;;;;9.04;100.00;99487.03;5039675;28;20316;-65
2022/11/03 07:11:29;;;;;;;0.82;0.20;;;;;;;8.98;100.00;99487.81;5050691;28;20035;-65
2022/11/03 07:14:09;;;;;;;1.60;0.25;;;;;;;8.97;100.00;99488.03;5049264;28;20111;-65
2022/11/03 07:16:40;;;;;;;4.53;0.13;;;;;;;8.93;100.00;99498.19;5053911;28;20482;-64
2022/11/03 07:19:17;;;;;;;0.57;0.30;;;;;;;8.90;100.00;99502.06;5061948;28;20025;-65
2022/11/03 07:21:45;;;;;;;4.75;1.23;;;;;;;8.88;100.00;99506.75;5034453;28;20064;-65
2022/11/03 07:24:26;;;;;;;0.45;0.00;;;;;;;8.91;100.00;99501.06;5055266;28;20111;-66
2022/11/03 07:27:15;;;;;;;2.72;0.03;;;;;;;8.93;100.00;99517.53;5047091;28;20162;-66
2022/11/03 07:29:42;;;;;;;0.45;0.20;;;;;;;8.92;100.00;99523.00;5049875;28;20032;-65
2022/11/03 07:32:23;;;;;;;0.75;0.55;;;;;;;8.92;100.00;99520.38;5055313;28;20047;-65
2022/11/03 07:34:52;;;;;;;1.00;0.00;;;;;;;8.90;100.00;99523.22;5060169;28;20052;-65
2022/11/03 07:37:20;;;;;;;0.95;0.20;;;;;;;8.89;100.00;99521.59;5058354;28;20029;-65
2022/11/03 07:39:46;;;;;;;0.75;0.10;;;;;;;8.88;100.00;99521.78;5067614;28;20032;-65
2022/11/03 07:42:18;;;;;;;1.13;0.22;;;;;;;8.90;100.00;99512.63;5052754;28;20542;-65
2022/11/03 07:44:44;;;;;;;2.65;0.28;;;;;;;8.92;100.00;99509.78;5065642;28;20071;-64
2022/11/03 07:47:26;;;;;;;0.40;0.22;;;;;;;8.96;100.00;99497.81;5052633;28;20021;-64
2022/11/03 07:49:53;;;;;;;0.90;0.10;;;;;;;8.99;100.00;99488.66;5053916;28;20032;-65
2022/11/03 07:52:22;;;;;;;0.73;0.08;;;;;;;9.02;100.00;99485.59;5054946;28;20032;-65
2022/11/03 07:54:50;;;;;;;1.55;0.10;;;;;;;9.03;100.00;99477.44;5059357;28;20108;-65
2022/11/03 07:57:22;;;;;;;5.75;0.38;;;;;;;9.04;100.00;99481.72;5054048;28;20017;-66
2022/11/03 07:59:50;;;;;;;1.20;0.22;;;;;;;9.05;100.00;99486.00;5053994;28;20073;-65
2022/11/03 08:02:29;;;;;;;6.28;0.63;;;;;;;9.09;100.00;99497.78;5053415;28;20386;-66
2022/11/03 08:04:55;;;;;;;1.80;0.38;;;;;;;9.08;100.00;99490.06;5057308;28;20040;-66
2022/11/03 08:07:20;;;;;;;1.98;0.52;;;;;;;9.08;100.00;99492.69;5059531;28;20020;-66
2022/11/03 08:09:45;;;;;;;3.65;0.65;;;;;;;9.10;100.00;99501.25;5060715;28;20044;-66
2022/11/03 08:12:11;;;;;;;0.77;0.32;;;;;;;9.08;100.00;99490.06;5055161;28;20111;-66
2022/11/03 08:14:36;;;;;;;4.85;0.68;;;;;;;9.09;100.00;99502.28;5056406;28;20032;-66
2022/11/03 08:17:02;;;;;;;4.00;0.10;;;;;;;9.11;100.00;99497.56;5056391;28;20086;-66
2022/11/03 08:19:27;;;;;;;3.03;0.20;;;;;;;9.12;100.00;99502.66;5055956;28;20555;-66
2022/11/03 08:21:53;;;;;;;4.68;2.05;;;;;;;9.16;100.00;99501.25;5061458;28;20013;-65
2022/11/03 08:24:18;;;;;;;0.55;0.22;;;;;;;9.21;100.00;99499.81;5036314;28;20025;-66
2022/11/03 08:26:44;;;;;;;1.40;0.20;;;;;;;9.22;100.00;99504.91;5055944;28;20078;-65
2022/11/03 08:29:09;;;;;;;3.13;0.70;;;;;;;9.24;100.00;99507.31;5056919;28;21942;-66
2022/11/03 08:31:34;;;;;;;2.08;1.45;;;;;;;9.23;100.00;99505.72;5061220;28;20394;-66
2022/11/03 08:33:59;;;;;;;2.75;1.00;;;;;;;9.23;100.00;99514.44;5058453;28;20512;-66
2022/11/03 08:36:25;;;;;;;0.80;0.30;;;;;;;9.26;100.00;99518.53;5061316;28;20016;-66
2022/11/03 08:38:50;;;;;;;4.85;1.88;;;;;;;9.24;100.00;99516.09;5056714;28;20433;-66
2022/11/03 08:41:15;;;;;;;0.30;0.30;;;;;;;9.19;100.00;99518.53;5064942;28;20032;-66
2022/11/03 08:43:41;;;;;;;0.93;0.28;;;;;;;9.20;100.00;99504.28;5061450;28;20081;-66
2022/11/03 08:46:06;;;;;;;4.68;0.30;;;;;;;9.22;100.00;99491.69;5056026;28;20025;-66
2022/11/03 08:48:32;;;;;;;1.80;0.20;;;;;;;9.25;100.00;99498.38;5053283;28;20092;-66
2022/11/03 08:50:57;;;;;;;2.00;1.77;;;;;;;9.20;100.00;99488.41;5057276;28;20052;-66
2022/11/03 08:53:25;;;;;;;1.25;0.38;;;;;;;9.18;100.00;99485.97;5050133;28;20461;-66
2022/11/03 08:55:53;;;;;;;4.22;0.50;;;;;;;9.16;100.00;99489.84;5061721;28;20025;-66
2022/11/03 08:58:20;;;;;;;3.90;0.47;;;;;;;9.17;100.00;99500.22;5055493;28;20025;-66
2022/11/03 09:00:45;;;;;;;3.58;0.52;;;;;;;9.21;100.00;99499.81;5054594;28;20060;-66
2022/11/03 09:03:11;;;;;;;1.48;0.30;;;;;;;9.23;100.00;99503.88;5052740;28;20053;-66
2022/11/03 09:05:37;;;;;;;0.38;0.38;;;;;;;9.25;100.00;99501.84;5056679;28;20029;-66
2022/11/03 09:08:02;;;;;;;2.72;0.32;;;;;;;9.21;100.00;99494.50;5061688;28;20505;-66
2022/11/03 09:10:28;;;;;;;5.32;3.33;;;;;;;9.23;100.00;99489.84;5049909;28;20094;-65
2022/11/03 09:12:53;;;;;;;1.67;1.52;;;;;;;9.23;100.00;99490.66;5064763;28;20029;-65
2022/11/03 09:15:19;;;;;;;6.88;1.58;;;;;;;9.26;100.00;99484.94;5037578;28;20491;-65
2022/11/03 09:17:44;;;;;;;6.63;0.82;;;;;;;9.28;100.00;99493.47;5055622;28;20032;-65
2022/11/03 09:20:10;;;;;;;4.28;0.63;;;;;;;9.29;100.00;99492.50;5066279;28;20087;-65
2022/11/03 09:22:36;;;;;;;0.70;0.70;;;;;;;9.29;100.00;99492.50;5048522;28;20539;-65
2022/11/03 09:25:01;;;;;;;3.50;0.60;;;;;;;9.30;100.00;99495.94;5056491;28;20098;-65
2022/11/03 09:27:26;;;;;;;4.40;1.35;;;;;;;9.25;100.00;99491.25;5057766;28;20116;-65
2022/11/03 09:29:52;;;;;;;4.75;0.20;;;;;;;9.27;100.00;99493.72;5046145;28;20367;-66
2022/11/03 09:32:17;;;;;;;5.53;0.25;;;;;;;9.28;100.00;99495.31;5051839;28;20032;-65
2022/11/03 09:34:43;;;;;;;2.90;0.70;;;;;;;9.30;100.00;99490.66;5062800;28;20488;-65
2022/11/03 09:37:08;;;;;;;0.75;0.05;;;;;;;9.31;100.00;99489.63;5058602;28;20031;-65
2022/11/03 09:39:34;;;;;;;2.55;0.45;;;;;;;9.34;100.00;99487.34;5067129;28;20036;-66
2022/11/03 09:42:02;;;;;;;1.33;0.25;;;;;;;9.38;100.00;99488.56;5038456;28;20033;-65
2022/11/03 09:44:27;;;;;;;1.88;0.10;;;;;;;9.40;100.00;99480.44;5058502;28;20041;-65
2022/11/03 09:46:53;;;;;;;3.97;0.38;;;;;;;9.42;100.00;99488.97;5056133;28;20104;-65
2022/11/03 09:49:19;;;;;;;1.52;0.13;;;;;;;9.41;100.00;99484.72;5054393;28;20037;-65
2022/11/03 09:51:45;;;;;;;5.68;0.75;;;;;;;9.41;100.00;99482.06;5068541;28;20384;-65
2022/11/03 09:54:15;;;;;;;1.67;0.68;;;;;;;9.43;100.00;99482.66;5062674;28;20037;-66
2022/11/03 09:56:42;;;;;;;1.50;1.30;;;;;;;9.45;100.00;99479.81;5053549;28;20039;-65
2022/11/03 09:59:33;;;;;;;2.75;0.32;;;;;;;9.44;100.00;99478.19;5057405;28;20025;-65
2022/11/03 10:01:58;;;;;;;4.10;0.25;;;;;;;9.45;100.00;99475.34;5073989;28;20054;-65
2022/11/03 10:04:28;;;;;;;3.95;1.13;;;;;;;9.48;100.00;99466.19;5053710;28;20040;-66
2022/11/03 10:06:57;;;;;;;0.77;0.52;;;;;;;9.45;100.00;99467.41;5042645;28;20461;-66
2022/11/03 10:09:25;;;;;;;4.90;0.52;;;;;;;9.47;100.00;99462.69;5058918;28;20116;-66
2022/11/03 10:11:53;;;;;;;5.20;0.73;;;;;;;9.49;100.00;99462.50;5058745;28;20082;-66
2022/11/03 10:14:19;;;;;;;7.50;1.00;;;;;;;9.48;100.00;99459.06;5058228;28;20116;-66
2022/11/03 10:16:56;;;;;;;3.13;0.20;;;;;;;9.50;100.00;99467.59;5055320;28;20028;-66
2022/11/03 10:19:22;;;;;;;3.60;0.63;;;;;;;9.51;100.00;99455.19;5065191;28;20029;-67
2022/11/03 10:21:48;;;;;;;2.92;1.13;;;;;;;9.53;100.00;99461.06;5057283;28;20056;-66
2022/11/03 10:24:13;;;;;;;2.95;0.32;;;;;;;9.53;100.00;99461.88;5068779;28;20052;-66
2022/11/03 10:26:55;;;;;;;3.17;0.30;;;;;;;9.54;100.00;99466.16;5057636;28;20055;-66
2022/11/03 10:29:20;;;;;;;;;;;;;;;9.53;100.00;99456.59;5060213;28;20025;-66
2022/11/03 10:31:50;;;;;;;0.10;0.10;;;;;;;9.55;100.00;99459.00;5060071;28;19962;-66
2022/11/03 10:34:36;;;;;;;2.45;0.30;;;;;;;9.52;100.00;99448.84;5057245;28;20028;-67
2022/11/03 10:37:24;;;;;;;4.90;0.55;;;;;;;9.51;100.00;99455.19;5057332;28;20659;-67
2022/11/03 10:39:54;;;;;;;1.92;0.95;;;;;;;9.54;100.00;99449.47;5057173;28;20104;-67
2022/11/03 10:42:22;;;;;;;3.42;0.57;;;;;;;9.52;100.00;99448.84;5059415;28;20033;-66
2022/11/03 10:45:10;;;;;;;3.45;0.88;;;;;;;9.63;100.00;99442.09;5058061;28;20040;-67
2022/11/03 10:47:35;;;;;;;1.60;0.22;;;;;;;9.66;100.00;99437.19;5060823;28;20032;-67
2022/11/03 10:50:27;;;;;;;1.95;0.20;;;;;;;9.67;100.00;99438.81;5041028;28;20397;-66
2022/11/03 10:52:53;;;;;;;1.35;0.55;;;;;;;9.61;100.00;99426.44;5056437;28;20510;-67
2022/11/03 10:55:21;;;;;;;0.95;0.32;;;;;;;9.60;100.00;99424.78;5053861;28;20013;-66
2022/11/03 10:57:46;;;;;;;0.73;0.50;;;;;;;9.65;100.00;99419.69;5055907;28;20107;-66
2022/11/03 11:00:14;;;;;;;3.20;0.00;;;;;;;9.70;100.00;99403.16;5061877;28;20109;-66
2022/11/03 11:02:41;;;;;;;3.78;0.60;;;;;;;9.64;100.00;99402.19;5051682;28;20390;-66
2022/11/03 11:05:23;;;;;;;3.88;0.20;;;;;;;9.66;100.00;99397.50;5058219;28;20071;-66
2022/11/03 11:07:52;;;;;;;;;;;;;;;9.67;100.00;99383.22;5056525;28;20056;-66
2022/11/03 11:10:23;;;;;;;0.45;0.17;;;;;;;9.67;100.00;99377.13;5037602;28;19949;-66
2022/11/03 11:13:16;;;;;;;1.35;1.25;;;;;;;9.75;100.00;99366.28;5062527;28;20111;-66
2022/11/03 11:15:44;;;;;;;2.53;0.20;;;;;;;9.78;100.00;99358.75;5064576;28;20032;-66
2022/11/03 11:18:44;;;;;;;0.65;0.10;;;;;;;9.83;100.00;99350.16;5064384;28;20028;-66
2022/11/03 11:21:18;;;;;;;0.70;0.10;;;;;;;9.90;100.00;99345.63;5043192;28;20037;-65
2022/11/03 11:23:46;;;;;;;1.00;0.10;;;;;;;9.90;100.00;99335.03;5062785;28;20070;-66
2022/11/03 11:26:25;;;;;;;0.85;0.43;;;;;;;9.91;100.00;99333.19;5059519;28;20029;-66
2022/11/03 11:29:09;;;;;;;0.40;0.20;;;;;;;9.91;100.00;99333.19;5058598;28;20041;-66
2022/11/03 11:31:41;;;;;;;3.63;0.10;;;;;;;9.94;100.00;99330.13;5047379;28;20449;-66
2022/11/03 11:34:09;;;;;;;2.13;0.20;;;;;;;10.00;100.00;99331.91;5050361;28;20048;-66
2022/11/03 11:36:36;;;;;;;0.93;0.80;;;;;;;9.98;100.00;99337.41;5060292;28;20041;-66
2022/11/03 11:39:07;;;;;;;1.20;0.30;;;;;;;9.97;100.00;99324.41;5052681;28;20025;-66
2022/11/03 11:42:10;;;;;;;1.77;0.75;;;;;;;10.10;100.00;99313.72;5063859;28;20055;-66
2022/11/03 11:44:38;;;;;;;0.77;0.10;;;;;;;10.51;100.00;99322.13;5058018;28;20048;-66
2022/11/03 11:47:39;;;;;;;3.35;0.40;;;;;;;10.86;100.00;99306.47;5065588;28;20521;-66
2022/11/03 11:50:04;;;;;;;1.95;0.15;;;;;;;10.91;100.00;99306.63;5007215;28;20137;-66
2022/11/03 11:52:49;;;;;;;0.75;0.17;;;;;;;11.01;100.00;99296.31;5063713;28;20463;-65
2022/11/03 11:55:23;;;;;;;2.08;0.10;;;;;;;10.89;100.00;99282.16;5063878;28;20044;-66
2022/11/03 11:57:49;;;;;;;3.88;0.15;;;;;;;10.84;100.00;99271.41;5063536;28;20028;-66
2022/11/03 12:00:17;;;;;;;0.30;0.25;;;;;;;10.86;100.00;99259.56;5058333;28;20029;-66
2022/11/03 12:02:45;;;;;;;2.20;0.20;;;;;;;10.87;100.00;99263.03;5061964;28;20036;-66